Time;durP1;ratioP1;P1;durP2;ratioP2;P2;SDS_P1;SDS_P2;PMS_P1;PMS_P2;Temp;Humidity;BMP_temperature;BMP_pressure;BME280_temperature;BME280_humidity;BME280_pressure;Samples;Min_cycle;Max_cycle;Signal;HPM_P1;HPM_P2
2023/07/15 00:00:17;;;;;;;4.32;3.92;;;;;;;28.33;59.09;101050.66;5060677;28;20071;-58
2023/07/15 00:02:45;;;;;;;6.13;4.05;;;;;;;28.33;59.14;101046.06;5059430;28;20055;-58
2023/07/15 00:05:35;;;;;;;6.13;4.15;;;;;;;28.35;58.63;101048.59;5057877;28;20049;-58
2023/07/15 00:08:03;;;;;;;6.45;3.92;;;;;;;28.35;58.95;101052.16;5059650;28;20056;-58
2023/07/15 00:10:30;;;;;;;5.82;4.18;;;;;;;28.36;58.54;101044.91;5060338;28;20519;-58
2023/07/15 00:12:57;;;;;;;5.35;4.43;;;;;;;28.37;58.65;101049.28;5057951;28;20041;-58
2023/07/15 00:15:25;;;;;;;5.40;4.05;;;;;;;28.38;58.76;101042.81;5057981;28;20511;-58
2023/07/15 00:17:53;;;;;;;6.57;3.70;;;;;;;28.38;58.80;101031.91;5056673;28;20056;-58
2023/07/15 00:20:20;;;;;;;7.82;4.72;;;;;;;28.38;58.79;101031.91;5055927;28;20049;-58
2023/07/15 00:22:47;;;;;;;4.60;3.72;;;;;;;28.38;59.03;101037.38;5057896;28;20045;-58
2023/07/15 00:25:19;;;;;;;6.82;4.05;;;;;;;28.39;58.82;101036.31;5057703;28;20045;-58
2023/07/15 00:27:47;;;;;;;5.25;4.13;;;;;;;28.39;58.92;101025.44;5059885;28;20049;-59
2023/07/15 00:30:17;;;;;;;7.00;4.43;;;;;;;28.40;59.04;101032.59;5069370;28;20048;-59
2023/07/15 00:32:47;;;;;;;6.03;4.35;;;;;;;28.41;58.51;101030.72;5057499;28;20057;-59
2023/07/15 00:35:33;;;;;;;5.35;4.13;;;;;;;28.41;58.66;101034.28;5058104;28;20053;-59
2023/07/15 00:38:01;;;;;;;5.50;4.38;;;;;;;28.42;58.52;101030.50;5058267;28;20432;-58
2023/07/15 00:40:35;;;;;;;7.38;4.68;;;;;;;28.41;58.62;101028.00;5057608;28;20052;-59
2023/07/15 00:43:39;;;;;;;5.55;4.10;;;;;;;28.42;58.93;101030.50;5054563;28;20056;-59
2023/07/15 00:46:26;;;;;;;4.80;3.90;;;;;;;28.42;58.60;101025.06;5065525;28;20501;-58
2023/07/15 00:49:01;;;;;;;5.65;4.85;;;;;;;28.42;58.88;101027.78;5058351;28;20053;-58
2023/07/15 00:51:35;;;;;;;5.65;4.68;;;;;;;28.43;58.58;101024.03;5060174;28;20360;-58
2023/07/15 00:54:03;;;;;;;5.28;3.60;;;;;;;28.43;58.94;101025.91;5061660;28;20037;-58
2023/07/15 00:56:33;;;;;;;4.47;3.88;;;;;;;28.43;58.52;101028.63;5061424;28;20043;-58
2023/07/15 00:59:04;;;;;;;5.00;3.72;;;;;;;28.43;58.63;101029.47;5059400;28;20060;-59
2023/07/15 01:01:34;;;;;;;5.70;4.20;;;;;;;28.44;58.74;101025.75;5059704;28;20063;-59
2023/07/15 01:04:03;;;;;;;4.60;3.53;;;;;;;28.43;58.54;101018.56;5059688;28;20061;-58
2023/07/15 01:06:33;;;;;;;4.88;4.07;;;;;;;28.44;58.46;101022.16;5061376;28;20060;-58
2023/07/15 01:09:07;;;;;;;5.60;4.20;;;;;;;28.45;58.45;101015.69;5061378;28;20049;-59
2023/07/15 01:11:34;;;;;;;;;;;;;;;28.42;58.58;101014.16;5074051;28;20055;-59
2023/07/15 01:14:02;;;;;;;5.88;4.32;;;;;;;28.44;58.70;101013.97;5061074;28;19924;-58
2023/07/15 01:16:29;;;;;;;6.32;4.25;;;;;;;28.44;58.29;101017.56;5061262;28;20040;-58
2023/07/15 01:18:59;;;;;;;6.32;4.22;;;;;;;28.45;58.28;101021.13;5064342;28;20060;-58
2023/07/15 01:21:32;;;;;;;6.07;4.40;;;;;;;28.45;58.63;101021.97;5062394;28;20049;-58
2023/07/15 01:24:00;;;;;;;5.28;3.67;;;;;;;28.45;58.15;101023.84;5065478;28;20067;-58
2023/07/15 01:26:28;;;;;;;4.20;3.42;;;;;;;28.45;58.27;101023.84;5060961;28;20048;-58
2023/07/15 01:28:56;;;;;;;5.45;3.95;;;;;;;28.45;58.26;101027.41;5062926;28;20056;-58
2023/07/15 01:31:26;;;;;;;5.53;4.30;;;;;;;28.45;58.12;101027.41;5057910;28;20432;-58
2023/07/15 01:33:54;;;;;;;6.90;4.28;;;;;;;28.45;58.53;101021.97;5059300;28;20049;-58
2023/07/15 01:36:24;;;;;;;5.38;4.38;;;;;;;28.45;58.32;101027.41;5058845;28;20041;-58
2023/07/15 01:38:52;;;;;;;5.47;4.13;;;;;;;28.46;58.40;101029.09;5064345;28;20393;-58
2023/07/15 01:41:19;;;;;;;5.72;4.13;;;;;;;28.47;58.50;101024.50;5061251;28;20049;-58
2023/07/15 01:43:47;;;;;;;5.40;4.10;;;;;;;28.45;58.39;101027.41;5057677;28;20055;-58
2023/07/15 01:46:14;;;;;;;5.50;4.38;;;;;;;28.46;58.18;101031.81;5067578;28;20500;-58
2023/07/15 01:48:42;;;;;;;4.38;3.90;;;;;;;28.47;58.31;101029.94;5059760;28;20049;-58
2023/07/15 01:51:10;;;;;;;4.78;3.90;;;;;;;28.47;57.83;101032.66;5057397;28;20052;-58
2023/07/15 01:53:39;;;;;;;4.90;3.90;;;;;;;28.47;57.98;101029.94;5058804;28;20057;-58
2023/07/15 01:56:07;;;;;;;7.97;4.70;;;;;;;28.47;57.69;101024.50;5059032;28;20037;-58
2023/07/15 01:58:34;;;;;;;5.70;4.57;;;;;;;28.48;58.15;101029.78;5070159;28;20393;-59
2023/07/15 02:01:01;;;;;;;7.60;4.43;;;;;;;28.48;58.05;101024.34;5057267;28;20060;-59
2023/07/15 02:03:29;;;;;;;7.70;4.20;;;;;;;28.49;57.78;101022.44;5057572;28;20049;-58
2023/07/15 02:05:56;;;;;;;6.15;3.78;;;;;;;28.48;57.67;101021.59;5058546;28;20045;-59
2023/07/15 02:08:24;;;;;;;6.13;4.32;;;;;;;28.47;56.99;101021.78;5063601;28;20040;-60
2023/07/15 02:10:51;;;;;;;5.63;4.28;;;;;;;28.46;56.08;101023.66;5057489;28;20403;-60
2023/07/15 02:13:19;;;;;;;6.35;4.50;;;;;;;28.46;55.90;101023.66;5063688;28;20052;-59
2023/07/15 02:15:46;;;;;;;5.55;4.45;;;;;;;28.46;55.73;101023.66;5061406;28;20045;-60
2023/07/15 02:18:13;;;;;;;6.50;4.50;;;;;;;28.46;55.58;101017.38;5063276;28;20037;-58
2023/07/15 02:20:46;;;;;;;6.13;4.30;;;;;;;28.45;55.64;101026.59;5060423;28;20052;-58
2023/07/15 02:23:13;;;;;;;7.50;4.85;;;;;;;28.44;55.88;101020.28;5062479;28;20060;-59
2023/07/15 02:25:41;;;;;;;5.68;4.65;;;;;;;28.45;55.37;101026.59;5061220;28;20045;-58
2023/07/15 02:28:08;;;;;;;5.72;4.20;;;;;;;28.43;55.17;101018.56;5062354;28;20043;-59
2023/07/15 02:30:35;;;;;;;6.03;4.65;;;;;;;28.43;55.07;101021.31;5060148;28;20370;-59
2023/07/15 02:33:06;;;;;;;6.82;4.72;;;;;;;28.43;54.97;101015.84;5056464;28;20075;-59
2023/07/15 02:35:33;;;;;;;6.47;4.65;;;;;;;28.43;55.22;101015.00;5058054;28;20045;-59
2023/07/15 02:38:01;;;;;;;6.82;4.07;;;;;;;28.41;55.15;101014.38;5061739;28;20043;-60
2023/07/15 02:40:29;;;;;;;6.25;4.60;;;;;;;28.41;55.07;101017.94;5056550;28;20057;-60
2023/07/15 02:42:56;;;;;;;6.32;4.78;;;;;;;28.41;55.05;101017.94;5065723;28;20051;-60
2023/07/15 02:45:24;;;;;;;7.57;4.22;;;;;;;28.42;55.14;101018.78;5069625;28;20055;-60
2023/07/15 02:47:51;;;;;;;6.65;5.10;;;;;;;28.41;54.59;101014.38;5061975;28;20048;-59
2023/07/15 02:50:19;;;;;;;5.55;4.45;;;;;;;28.42;54.95;101022.34;5059669;28;20037;-59
2023/07/15 02:52:46;;;;;;;6.47;4.68;;;;;;;28.42;54.87;101024.22;5059639;28;20396;-59
2023/07/15 02:55:13;;;;;;;6.32;4.72;;;;;;;28.43;54.94;101025.91;5061262;28;20044;-59
2023/07/15 02:57:41;;;;;;;5.38;4.63;;;;;;;28.42;54.98;101016.06;5061381;28;20518;-59
2023/07/15 03:00:12;;;;;;;5.10;4.13;;;;;;;28.42;54.96;101019.63;5056464;28;20492;-59
2023/07/15 03:02:50;;;;;;;6.28;4.95;;;;;;;28.43;54.94;101006.84;5058102;28;20057;-59
2023/07/15 03:05:18;;;;;;;6.57;4.22;;;;;;;28.43;54.65;101024.03;5072353;28;20055;-58
2023/07/15 03:07:48;;;;;;;7.53;4.78;;;;;;;28.42;54.57;101016.06;5055977;28;20044;-59
2023/07/15 03:10:16;;;;;;;5.40;4.38;;;;;;;28.41;54.30;101020.66;5057479;28;20052;-60
2023/07/15 03:12:43;;;;;;;5.50;4.50;;;;;;;28.41;54.15;101025.25;5059207;28;20059;-61
2023/07/15 03:15:11;;;;;;;5.68;4.55;;;;;;;28.39;54.14;101030.88;5062919;28;20496;-60
2023/07/15 03:17:38;;;;;;;5.63;4.07;;;;;;;28.39;54.43;101028.16;5056781;28;20052;-59
2023/07/15 03:20:21;;;;;;;6.35;4.40;;;;;;;28.38;54.14;101026.47;5064294;28;20496;-59
2023/07/15 03:22:50;;;;;;;5.80;4.05;;;;;;;28.38;54.28;101026.47;5060388;28;20056;-59
2023/07/15 03:25:21;;;;;;;5.20;4.18;;;;;;;28.38;53.90;101029.19;5070222;28;20044;-59
2023/07/15 03:27:49;;;;;;;6.78;4.18;;;;;;;28.38;53.83;101031.91;5059082;28;20033;-59
2023/07/15 03:30:18;;;;;;;7.25;4.22;;;;;;;28.37;53.81;101035.69;5058779;28;20055;-59
2023/07/15 03:32:46;;;;;;;5.38;3.83;;;;;;;28.38;53.67;101033.81;5061392;28;20045;-59
2023/07/15 03:35:15;;;;;;;6.13;4.32;;;;;;;28.38;53.66;101039.25;5058907;28;20052;-59
2023/07/15 03:37:44;;;;;;;5.28;4.55;;;;;;;28.38;54.00;101042.81;5056380;28;20048;-60
2023/07/15 03:40:12;;;;;;;5.72;4.05;;;;;;;28.38;53.74;101050.97;5058589;28;20045;-61
2023/07/15 03:42:41;;;;;;;4.97;4.00;;;;;;;28.38;53.89;101053.69;5059944;28;20045;-60
2023/07/15 03:45:09;;;;;;;6.80;4.25;;;;;;;28.37;53.55;101052.03;5058382;28;20056;-60
2023/07/15 03:47:36;;;;;;;7.28;4.45;;;;;;;28.36;53.74;101042.16;5058237;28;20068;-59
2023/07/15 03:50:09;;;;;;;5.70;4.30;;;;;;;28.36;53.14;101044.91;5058414;28;20047;-61
2023/07/15 03:52:37;;;;;;;7.10;4.47;;;;;;;28.36;53.08;101044.91;5061515;28;20048;-61
2023/07/15 03:55:05;;;;;;;4.85;4.00;;;;;;;28.35;52.92;101040.41;5058092;28;20071;-60
2023/07/15 03:57:33;;;;;;;6.80;3.88;;;;;;;28.34;52.72;101042.31;5058577;28;20053;-59
2023/07/15 04:00:03;;;;;;;5.50;4.13;;;;;;;28.33;52.61;101040.63;5059110;28;20041;-59
2023/07/15 04:02:39;;;;;;;6.43;4.20;;;;;;;28.34;52.84;101041.47;5074064;28;20056;-59
2023/07/15 04:05:07;;;;;;;7.13;3.63;;;;;;;28.33;52.82;101035.16;5057879;28;20056;-59
2023/07/15 04:07:34;;;;;;;4.70;3.72;;;;;;;28.33;52.72;101042.50;5057802;28;20036;-59
2023/07/15 04:10:02;;;;;;;5.15;3.60;;;;;;;28.33;52.22;101043.34;5060466;28;20052;-59
2023/07/15 04:12:29;;;;;;;4.65;3.67;;;;;;;28.33;52.35;101039.78;5070121;28;20041;-59
2023/07/15 04:14:56;;;;;;;6.00;3.95;;;;;;;28.33;52.62;101039.78;5057849;28;20048;-59
2023/07/15 04:17:24;;;;;;;6.95;4.10;;;;;;;28.32;52.50;101038.94;5057716;28;20052;-60
2023/07/15 04:19:51;;;;;;;5.50;4.07;;;;;;;28.32;52.17;101038.94;5060228;28;20072;-60
2023/07/15 04:22:19;;;;;;;7.13;3.67;;;;;;;28.32;52.60;101041.66;5069617;28;20412;-60
2023/07/15 04:24:46;;;;;;;6.32;3.92;;;;;;;28.32;52.32;101038.09;5057690;28;20045;-60
2023/07/15 04:27:13;;;;;;;4.97;4.00;;;;;;;28.32;52.30;101041.66;5057023;28;20045;-60
2023/07/15 04:29:41;;;;;;;5.25;3.65;;;;;;;28.33;52.05;101040.63;5059864;28;20044;-60
2023/07/15 04:32:08;;;;;;;5.35;3.95;;;;;;;28.33;52.46;101043.34;5069140;28;20052;-60
2023/07/15 04:34:36;;;;;;;5.68;3.40;;;;;;;28.32;51.95;101044.38;5057765;28;20053;-60
2023/07/15 04:37:03;;;;;;;5.57;3.53;;;;;;;28.33;52.00;101039.78;5057550;28;20056;-60
2023/07/15 04:39:30;;;;;;;7.32;4.32;;;;;;;28.34;52.12;101044.19;5059745;28;20053;-60
2023/07/15 04:41:58;;;;;;;4.80;3.40;;;;;;;28.34;51.67;101041.47;5069144;28;20410;-60
2023/07/15 04:44:25;;;;;;;4.13;3.33;;;;;;;28.34;52.17;101042.31;5057297;28;20052;-61
2023/07/15 04:46:52;;;;;;;6.60;3.40;;;;;;;28.34;52.20;101046.91;5057289;28;20104;-59
2023/07/15 04:49:20;;;;;;;4.20;3.58;;;;;;;28.34;51.83;101052.34;5059261;28;20049;-58
2023/07/15 04:51:47;;;;;;;4.60;3.38;;;;;;;28.35;51.61;101048.59;5069189;28;20118;-58
2023/07/15 04:54:15;;;;;;;5.63;4.07;;;;;;;28.34;51.78;101052.34;5053856;28;20060;-58
2023/07/15 04:56:42;;;;;;;6.18;4.38;;;;;;;28.35;51.93;101062.19;5057760;28;20048;-58
2023/07/15 04:59:10;;;;;;;5.07;3.47;;;;;;;28.33;51.75;101046.06;5060008;28;20493;-58
2023/07/15 05:01:37;;;;;;;5.38;3.70;;;;;;;28.34;51.46;101052.34;5069116;28;20048;-59
2023/07/15 05:04:05;;;;;;;4.25;3.40;;;;;;;28.32;51.24;101055.28;5057216;28;20049;-59
2023/07/15 05:06:32;;;;;;;6.13;3.33;;;;;;;28.33;51.43;101059.69;5057955;28;20060;-59
2023/07/15 05:09:00;;;;;;;5.68;3.55;;;;;;;28.33;51.71;101061.56;5059488;28;20060;-60
2023/07/15 05:11:28;;;;;;;5.28;3.60;;;;;;;28.33;51.84;101065.13;5068865;28;20044;-60
2023/07/15 05:13:56;;;;;;;5.72;3.60;;;;;;;28.34;51.52;101065.97;5057875;28;20053;-60
2023/07/15 05:16:23;;;;;;;6.32;4.18;;;;;;;28.34;51.47;101068.69;5057323;28;20055;-59
2023/07/15 05:18:51;;;;;;;5.82;3.97;;;;;;;28.34;51.31;101068.69;5059502;28;20505;-60
2023/07/15 05:21:18;;;;;;;6.70;4.55;;;;;;;28.33;51.49;101073.28;5068941;28;20515;-60
2023/07/15 05:23:46;;;;;;;5.35;4.10;;;;;;;28.33;51.33;101084.19;5057389;28;20052;-60
2023/07/15 05:26:13;;;;;;;6.90;4.07;;;;;;;28.34;51.31;101079.59;5057285;28;20041;-60
2023/07/15 05:28:40;;;;;;;6.05;3.50;;;;;;;28.34;51.29;101085.03;5059246;28;20507;-60
2023/07/15 05:31:08;;;;;;;8.15;4.55;;;;;;;28.34;51.65;101083.16;5068737;28;20051;-59
2023/07/15 05:33:35;;;;;;;6.32;4.18;;;;;;;28.34;51.59;101085.88;5056772;28;20053;-59
2023/07/15 05:36:03;;;;;;;5.93;3.78;;;;;;;28.34;51.48;101085.88;5057079;28;20056;-58
2023/07/15 05:38:39;;;;;;;7.78;4.38;;;;;;;28.35;51.55;101084.00;5061735;28;20048;-59
2023/07/15 05:41:07;;;;;;;6.55;4.38;;;;;;;28.35;51.15;101086.72;5072791;28;20041;-59
2023/07/15 05:43:34;;;;;;;5.45;4.00;;;;;;;28.35;51.30;101081.25;5060614;28;20053;-59
2023/07/15 05:46:01;;;;;;;5.95;3.70;;;;;;;28.35;51.28;101089.44;5060605;28;20392;-59
2023/07/15 05:48:31;;;;;;;7.13;4.80;;;;;;;28.34;51.54;101093.19;5061461;28;20048;-58
2023/07/15 05:50:58;;;;;;;5.25;3.58;;;;;;;28.34;51.13;101085.88;5060611;28;20045;-59
2023/07/15 05:53:25;;;;;;;6.35;3.92;;;;;;;28.34;51.41;101085.03;5060313;28;20413;-59
2023/07/15 05:55:53;;;;;;;6.93;3.92;;;;;;;28.36;51.37;101088.47;5060544;28;20071;-59
2023/07/15 05:58:23;;;;;;;6.80;4.28;;;;;;;28.36;51.15;101080.28;5062589;28;20392;-58
2023/07/15 06:00:51;;;;;;;5.93;3.13;;;;;;;28.37;51.52;101092.88;5060909;28;20053;-59
2023/07/15 06:03:18;;;;;;;5.60;3.80;;;;;;;28.38;51.68;101090.97;5060335;28;20488;-59
2023/07/15 06:05:46;;;;;;;5.35;4.05;;;;;;;28.38;51.65;101090.97;5064924;28;20048;-59
2023/07/15 06:08:13;;;;;;;5.25;3.78;;;;;;;28.38;51.30;101093.72;5060185;28;20040;-58
2023/07/15 06:10:42;;;;;;;5.95;3.83;;;;;;;28.39;51.83;101090.78;5060395;28;20051;-57
2023/07/15 06:13:10;;;;;;;6.32;3.80;;;;;;;28.39;52.24;101096.22;5060247;28;20052;-57
2023/07/15 06:15:38;;;;;;;5.05;3.75;;;;;;;28.38;52.23;101097.28;5060884;28;20048;-57
2023/07/15 06:18:06;;;;;;;4.82;3.42;;;;;;;28.40;52.18;101094.34;5063903;28;20412;-57
2023/07/15 06:20:40;;;;;;;4.25;3.28;;;;;;;28.41;51.85;101102.34;5060236;28;20052;-58
2023/07/15 06:23:08;;;;;;;7.07;4.32;;;;;;;28.41;51.75;101104.25;5059914;28;20049;-58
2023/07/15 06:25:37;;;;;;;4.95;3.60;;;;;;;28.43;51.76;101099.44;5061334;28;20527;-58
2023/07/15 06:28:05;;;;;;;5.20;3.50;;;;;;;28.43;52.23;101105.72;5068827;28;20510;-57
2023/07/15 06:30:32;;;;;;;6.32;3.67;;;;;;;28.43;51.88;101105.72;5059800;28;20041;-58
2023/07/15 06:33:00;;;;;;;5.43;3.75;;;;;;;28.45;52.01;101105.56;5059677;28;20060;-57
2023/07/15 06:35:27;;;;;;;5.40;3.25;;;;;;;28.45;52.69;101117.28;5061253;28;20053;-57
2023/07/15 06:37:54;;;;;;;5.93;3.47;;;;;;;28.46;52.90;101108.09;5062417;28;20059;-58
2023/07/15 06:40:22;;;;;;;5.15;4.03;;;;;;;28.47;53.06;101108.94;5059652;28;20045;-59
2023/07/15 06:42:50;;;;;;;6.72;3.65;;;;;;;28.46;52.93;101099.91;5059703;28;20056;-59
2023/07/15 06:45:19;;;;;;;5.60;3.80;;;;;;;28.47;52.85;101095.31;5061205;28;20060;-59
2023/07/15 06:47:47;;;;;;;5.03;3.60;;;;;;;28.48;53.10;101106.03;5062023;28;20059;-57
2023/07/15 06:50:14;;;;;;;5.45;3.60;;;;;;;28.48;53.36;101103.31;5059092;28;20044;-57
2023/07/15 06:52:41;;;;;;;6.07;3.72;;;;;;;28.48;53.26;101097.88;5059339;28;20045;-57
2023/07/15 06:55:09;;;;;;;4.38;3.20;;;;;;;28.49;53.35;101096.81;5061205;28;20053;-58
2023/07/15 06:57:36;;;;;;;7.65;3.35;;;;;;;28.51;53.60;101102.06;5061794;28;20052;-57
2023/07/15 07:00:04;;;;;;;5.38;3.70;;;;;;;28.51;53.48;101107.53;5059260;28;20041;-57
2023/07/15 07:02:31;;;;;;;4.78;3.55;;;;;;;28.50;53.62;101101.22;5059276;28;20524;-57
2023/07/15 07:04:59;;;;;;;4.63;3.22;;;;;;;28.52;53.84;101103.75;5061003;28;20045;-56
2023/07/15 07:07:26;;;;;;;4.07;3.05;;;;;;;28.52;54.10;101106.47;5061520;28;20044;-56
2023/07/15 07:09:53;;;;;;;4.68;3.83;;;;;;;28.53;54.04;101100.03;5059375;28;20045;-57
2023/07/15 07:12:22;;;;;;;5.85;3.97;;;;;;;28.52;53.93;101096.47;5065527;28;20056;-57
2023/07/15 07:14:50;;;;;;;5.70;3.65;;;;;;;28.54;53.46;101101.72;5060056;28;20049;-56
2023/07/15 07:17:17;;;;;;;4.95;4.20;;;;;;;28.51;53.67;101097.47;5061016;28;20053;-57
2023/07/15 07:19:46;;;;;;;5.63;4.13;;;;;;;28.49;52.80;101102.28;5056093;28;20052;-57
2023/07/15 07:22:14;;;;;;;9.40;5.40;;;;;;;28.48;52.52;101097.88;5059193;28;20401;-57
2023/07/15 07:24:41;;;;;;;6.60;5.20;;;;;;;28.46;52.19;101097.19;5061423;28;20047;-58
2023/07/15 07:27:08;;;;;;;8.13;5.40;;;;;;;28.43;52.51;101103.00;5068681;28;20423;-60
2023/07/15 07:29:36;;;;;;;9.50;6.00;;;;;;;28.41;52.25;101093.34;5068313;28;20037;-60
2023/07/15 07:32:04;;;;;;;6.45;5.50;;;;;;;28.38;52.30;101086.38;5058458;28;20048;-60
2023/07/15 07:34:33;;;;;;;8.18;5.93;;;;;;;28.38;52.79;101080.94;5060737;28;20045;-60
2023/07/15 07:37:00;;;;;;;8.43;5.25;;;;;;;28.38;52.43;101091.81;5070525;28;20044;-58
2023/07/15 07:39:31;;;;;;;7.20;5.30;;;;;;;28.38;53.08;101089.09;5059032;28;20048;-58
2023/07/15 07:41:58;;;;;;;6.18;5.07;;;;;;;28.41;52.77;101079.72;5058699;28;20404;-58
2023/07/15 07:44:25;;;;;;;5.50;4.38;;;;;;;28.42;52.99;101078.69;5061019;28;20411;-58
2023/07/15 07:46:53;;;;;;;7.20;5.30;;;;;;;28.44;53.06;101082.06;5059937;28;20431;-60
2023/07/15 07:49:20;;;;;;;6.45;4.93;;;;;;;28.44;53.02;101063.00;5058554;28;20037;-60
2023/07/15 07:51:47;;;;;;;6.30;5.45;;;;;;;28.44;53.09;101068.44;5058143;28;20412;-59
2023/07/15 07:54:15;;;;;;;6.78;5.22;;;;;;;28.42;52.98;101074.09;5060658;28;20052;-60
2023/07/15 07:56:42;;;;;;;7.38;5.45;;;;;;;28.41;53.46;101066.94;5059488;28;20052;-60
2023/07/15 07:59:09;;;;;;;7.97;6.03;;;;;;;28.40;53.69;101062.53;5058411;28;20045;-60
2023/07/15 08:01:37;;;;;;;7.00;5.95;;;;;;;28.39;53.23;101063.56;5057379;28;20060;-59
2023/07/15 08:04:04;;;;;;;8.02;5.68;;;;;;;28.39;53.23;101076.34;5060885;28;20044;-59
2023/07/15 08:06:32;;;;;;;9.57;6.30;;;;;;;28.38;53.21;101070.03;5059329;28;20048;-59
2023/07/15 08:08:59;;;;;;;7.07;5.85;;;;;;;28.40;53.49;101083.47;5058149;28;20041;-59
2023/07/15 08:11:27;;;;;;;6.00;5.40;;;;;;;28.43;53.80;101081.22;5058044;28;20048;-59
2023/07/15 08:13:54;;;;;;;7.13;5.00;;;;;;;28.46;53.44;101083.56;5060343;28;20052;-60
2023/07/15 08:16:36;;;;;;;6.68;5.43;;;;;;;28.48;54.15;101070.63;5059698;28;20045;-58
2023/07/15 08:19:05;;;;;;;9.20;5.80;;;;;;;28.49;54.28;101080.47;5058028;28;20048;-58
2023/07/15 08:21:33;;;;;;;7.43;5.65;;;;;;;28.49;54.51;101080.47;5058374;28;20045;-57
2023/07/15 08:24:00;;;;;;;11.98;6.68;;;;;;;28.50;54.27;101084.88;5061196;28;20055;-57
2023/07/15 08:26:28;;;;;;;7.03;6.15;;;;;;;28.51;54.75;101083.84;5057660;28;20053;-58
2023/07/15 08:28:56;;;;;;;6.50;5.70;;;;;;;28.54;54.58;101079.91;5057742;28;20052;-58
2023/07/15 08:31:23;;;;;;;5.72;5.13;;;;;;;28.56;54.83;101088.72;5055450;28;20061;-58
2023/07/15 08:33:51;;;;;;;11.23;6.07;;;;;;;28.56;54.76;101091.47;5056633;28;20049;-59
2023/07/15 08:36:18;;;;;;;7.68;6.60;;;;;;;28.56;55.17;101097.78;5056600;28;20051;-57
2023/07/15 08:38:46;;;;;;;8.25;7.35;;;;;;;28.55;55.00;101090.63;5055714;28;20389;-57
2023/07/15 08:41:16;;;;;;;7.70;6.90;;;;;;;28.56;55.16;101097.78;5058441;28;20048;-57
2023/07/15 08:43:45;;;;;;;8.63;6.90;;;;;;;28.55;54.91;101087.88;5060564;28;20047;-57
2023/07/15 08:46:26;;;;;;;9.65;6.82;;;;;;;28.56;55.42;101086.88;5058047;28;20053;-57
2023/07/15 08:48:59;;;;;;;8.82;6.82;;;;;;;28.56;55.08;101092.34;5057755;28;20052;-57
2023/07/15 08:51:33;;;;;;;11.10;7.20;;;;;;;28.56;55.69;101089.59;5059432;28;20388;-57
2023/07/15 08:54:02;;;;;;;8.60;6.55;;;;;;;28.58;55.85;101092.97;5055423;28;20049;-57
2023/07/15 08:56:31;;;;;;;10.98;7.93;;;;;;;28.59;55.74;101097.38;5057324;28;20052;-57
2023/07/15 08:58:59;;;;;;;8.13;7.30;;;;;;;28.59;55.10;101094.66;5058490;28;20053;-57
2023/07/15 09:01:26;;;;;;;8.35;7.30;;;;;;;28.61;55.86;101097.22;5060370;28;20044;-57
2023/07/15 09:03:54;;;;;;;8.57;7.68;;;;;;;28.62;55.76;101095.34;5057464;28;20056;-57
2023/07/15 09:06:22;;;;;;;8.80;6.55;;;;;;;28.62;55.88;101090.72;5054123;28;20416;-60
2023/07/15 09:08:50;;;;;;;8.65;6.82;;;;;;;28.61;55.95;101091.75;5055534;28;20045;-58
2023/07/15 09:11:18;;;;;;;9.70;7.13;;;;;;;28.63;55.90;101094.28;5059402;28;20492;-58
2023/07/15 09:13:46;;;;;;;8.07;7.15;;;;;;;28.63;55.68;101094.28;5060288;28;20051;-58
2023/07/15 09:16:14;;;;;;;7.53;6.43;;;;;;;28.64;55.43;101087.81;5061420;28;20045;-57
2023/07/15 09:18:43;;;;;;;9.15;7.10;;;;;;;28.64;55.79;101088.66;5062794;28;20045;-57
2023/07/15 09:21:16;;;;;;;7.38;6.35;;;;;;;28.66;55.57;101096.66;5063573;28;20408;-57
2023/07/15 09:23:45;;;;;;;7.75;6.97;;;;;;;28.66;55.88;101096.66;5061257;28;20049;-57
2023/07/15 09:26:13;;;;;;;8.77;6.70;;;;;;;28.66;55.83;101093.94;5068407;28;20550;-57
2023/07/15 09:28:46;;;;;;;8.23;6.90;;;;;;;28.68;55.77;101097.28;5062287;28;20041;-57
2023/07/15 09:31:22;;;;;;;7.35;6.10;;;;;;;28.68;55.76;101092.69;5061648;28;20049;-57
2023/07/15 09:33:50;;;;;;;9.35;7.13;;;;;;;28.69;55.84;101093.56;5060696;28;20064;-57
2023/07/15 09:36:32;;;;;;;8.18;6.90;;;;;;;28.69;55.61;101099.84;5063832;28;20052;-60
2023/07/15 09:39:23;;;;;;;9.30;6.33;;;;;;;28.69;56.17;101091.69;5066451;28;20055;-58
2023/07/15 09:42:07;;;;;;;9.63;6.95;;;;;;;28.71;56.22;101092.31;5059889;28;20286;-60
2023/07/15 09:44:45;;;;;;;7.13;6.40;;;;;;;28.72;56.35;101101.34;5061968;28;20048;-58
2023/07/15 09:47:12;;;;;;;9.68;6.70;;;;;;;28.73;56.57;101100.31;5056356;28;20060;-57
2023/07/15 09:49:40;;;;;;;8.00;6.43;;;;;;;28.74;56.52;101102.84;5058284;28;20041;-58
2023/07/15 09:52:07;;;;;;;8.88;7.72;;;;;;;28.75;56.90;101103.69;5069843;28;20511;-57
2023/07/15 09:54:35;;;;;;;9.15;7.45;;;;;;;28.75;57.01;101093.63;5072261;28;20041;-57
2023/07/15 09:57:09;;;;;;;9.25;7.30;;;;;;;28.77;57.26;101104.38;5056667;28;20045;-57
2023/07/15 09:59:48;;;;;;;9.32;7.78;;;;;;;28.77;57.59;101101.63;5064186;28;20404;-57
2023/07/15 10:02:33;;;;;;;8.88;7.47;;;;;;;28.78;57.25;101097.88;5066064;28;20361;-57
2023/07/15 10:05:05;;;;;;;7.63;6.82;;;;;;;28.80;57.59;101101.25;5057633;28;20056;-57
2023/07/15 10:07:33;;;;;;;10.55;7.82;;;;;;;28.79;57.50;101096.81;5064601;28;20052;-58
2023/07/15 10:10:02;;;;;;;8.32;7.00;;;;;;;28.81;57.24;101098.34;5075268;28;20502;-58
2023/07/15 10:12:30;;;;;;;8.73;7.50;;;;;;;28.88;57.10;101097.56;5063976;28;20056;-58
2023/07/15 10:14:59;;;;;;;9.52;7.38;;;;;;;28.90;56.92;101096.34;5062681;28;20044;-58
2023/07/15 10:17:35;;;;;;;8.90;7.05;;;;;;;28.93;56.88;101092.44;5064903;28;20048;-56
2023/07/15 10:20:10;;;;;;;8.48;7.63;;;;;;;28.93;56.60;101090.53;5066313;28;20068;-56
2023/07/15 10:22:39;;;;;;;8.20;7.25;;;;;;;28.93;57.00;101090.53;5062499;28;20060;-56
2023/07/15 10:25:09;;;;;;;7.85;6.88;;;;;;;28.94;56.64;101092.22;5062031;28;20041;-56
2023/07/15 10:27:37;;;;;;;10.07;7.20;;;;;;;28.94;56.92;101091.38;5066119;28;20044;-58
2023/07/15 10:30:18;;;;;;;8.18;6.53;;;;;;;28.93;56.72;101085.09;5071474;28;20045;-60
2023/07/15 10:33:00;;;;;;;9.73;7.13;;;;;;;28.96;57.34;101083.84;5056784;28;20424;-59
2023/07/15 10:35:31;;;;;;;7.93;6.82;;;;;;;28.96;57.38;101079.22;5061962;28;20071;-58
2023/07/15 10:38:26;;;;;;;8.15;6.88;;;;;;;28.99;57.67;101088.97;5071518;28;20045;-58
2023/07/15 10:41:02;;;;;;;7.60;6.80;;;;;;;29.00;57.24;101090.63;5062201;28;20416;-58
2023/07/15 10:43:40;;;;;;;10.48;7.07;;;;;;;29.04;57.79;101086.50;5063106;28;20411;-57
2023/07/15 10:46:12;;;;;;;10.27;7.22;;;;;;;29.08;57.30;101085.09;5065130;28;20060;-57
2023/07/15 10:48:40;;;;;;;10.20;7.22;;;;;;;29.11;57.08;101075.69;5058648;28;20049;-58
2023/07/15 10:51:09;;;;;;;6.88;6.18;;;;;;;29.12;56.26;101067.31;5060687;28;20049;-58
2023/07/15 10:53:38;;;;;;;8.52;6.68;;;;;;;29.13;56.66;101073.59;5058507;28;20045;-58
2023/07/15 10:56:09;;;;;;;9.43;7.50;;;;;;;29.13;58.99;101070.88;5065281;28;20397;-57
2023/07/15 10:58:37;;;;;;;7.93;7.15;;;;;;;29.09;60.36;101067.72;5064129;28;20574;-58
2023/07/15 11:01:06;;;;;;;8.60;7.43;;;;;;;29.07;60.49;101058.88;5061886;28;20044;-58
2023/07/15 11:03:36;;;;;;;8.85;7.32;;;;;;;29.04;61.12;101070.13;5062314;28;20048;-58
2023/07/15 11:06:04;;;;;;;7.97;6.20;;;;;;;29.00;61.52;101056.03;5056230;28;20048;-57
2023/07/15 11:08:38;;;;;;;8.43;6.70;;;;;;;28.98;62.33;101060.84;5058472;28;20049;-56
2023/07/15 11:11:10;;;;;;;7.50;6.70;;;;;;;28.96;62.31;101057.44;5059658;28;20075;-56
2023/07/15 11:13:40;;;;;;;6.75;6.15;;;;;;;28.92;61.70;101053.41;5063594;28;20045;-56
2023/07/15 11:16:07;;;;;;;7.45;5.93;;;;;;;28.89;60.97;101053.78;5065116;28;20060;-57
2023/07/15 11:18:35;;;;;;;6.45;5.82;;;;;;;28.87;61.02;101047.69;5064666;28;20412;-58
2023/07/15 11:21:02;;;;;;;6.80;5.97;;;;;;;28.84;60.98;101050.78;5058968;28;20068;-57
2023/07/15 11:23:31;;;;;;;8.85;6.50;;;;;;;28.82;60.01;101045.53;5060656;28;20048;-57
2023/07/15 11:26:08;;;;;;;6.10;5.38;;;;;;;28.82;58.95;101036.50;5060660;28;20060;-56
2023/07/15 11:28:49;;;;;;;7.85;6.15;;;;;;;28.84;56.56;101023.53;5056108;28;20045;-57
2023/07/15 11:31:20;;;;;;;8.10;6.80;;;;;;;28.86;58.13;101021.47;5064010;28;20055;-55
2023/07/15 11:33:51;;;;;;;7.43;6.70;;;;;;;28.86;58.04;101026.06;5059131;28;20053;-57